Time;durP1;ratioP1;P1;durP2;ratioP2;P2;SDS_P1;SDS_P2;PMS_P1;PMS_P2;Temp;Humidity;BMP_temperature;BMP_pressure;BME280_temperature;BME280_humidity;BME280_pressure;Samples;Min_cycle;Max_cycle;Signal;HPM_P1;HPM_P2
2023/04/21 04:22:33;;;;;;;5.18;4.68;;;;;;;1.89;100.00;99843.03;5109878;27;20396;-71
2023/04/21 04:25:00;;;;;;;13.65;6.40;;;;;;;1.90;100.00;99844.69;5109793;28;20036;-71
2023/04/21 04:27:28;;;;;;;9.90;5.60;;;;;;;1.79;100.00;99844.75;5109427;28;20127;-71
2023/04/21 04:29:54;;;;;;;14.63;6.15;;;;;;;1.69;100.00;99830.69;5109702;28;20891;-71
2023/04/21 04:32:19;;;;;;;11.30;5.68;;;;;;;1.75;100.00;99829.34;5109756;28;20130;-71
2023/04/21 04:34:45;;;;;;;10.63;6.18;;;;;;;1.67;100.00;99830.00;5109635;28;20046;-71
2023/04/21 04:37:11;;;;;;;11.40;5.30;;;;;;;1.73;100.00;99818.97;5109223;28;20495;-72
2023/04/21 04:39:37;;;;;;;13.95;6.03;;;;;;;1.72;100.00;99829.63;5109569;28;20063;-71
2023/04/21 04:42:07;;;;;;;13.10;5.88;;;;;;;1.71;100.00;99830.59;5109289;28;20507;-71
2023/04/21 04:44:33;;;;;;;10.52;5.50;;;;;;;1.70;100.00;99832.38;5109467;28;20044;-71
2023/04/21 04:46:58;;;;;;;8.02;5.45;;;;;;;1.68;100.00;99836.91;5109150;28;20042;-71
2023/04/21 04:49:24;;;;;;;10.55;5.90;;;;;;;1.66;100.00;99833.59;5109329;28;20610;-71
2023/04/21 04:51:50;;;;;;;10.07;5.50;;;;;;;1.66;100.00;99840.63;5109349;28;20036;-71
2023/04/21 04:54:16;;;;;;;10.50;5.75;;;;;;;1.52;100.00;99837.34;5109261;28;20085;-71
2023/04/21 04:56:41;;;;;;;12.38;6.25;;;;;;;1.53;100.00;99833.75;5109140;28;20043;-72
2023/04/21 04:59:07;;;;;;;12.07;5.80;;;;;;;1.43;100.00;99832.81;5108865;28;20036;-71
2023/04/21 05:01:32;;;;;;;9.73;5.38;;;;;;;1.43;100.00;99842.50;5109114;28;20443;-71
2023/04/21 05:03:58;;;;;;;10.75;6.53;;;;;;;1.56;100.00;99840.53;5109098;28;20035;-71
2023/04/21 05:06:23;;;;;;;7.40;4.57;;;;;;;1.54;100.00;99843.28;5108879;28;20043;-71
2023/04/21 05:08:49;;;;;;;10.60;5.72;;;;;;;1.55;100.00;99846.75;5108684;28;20408;-71
2023/04/21 05:11:14;;;;;;;11.38;5.72;;;;;;;1.54;100.00;99851.16;5109317;28;20028;-71
2023/04/21 05:13:39;;;;;;;9.57;5.18;;;;;;;1.61;100.00;99856.75;5108826;28;20047;-71
2023/04/21 05:16:05;;;;;;;8.40;5.38;;;;;;;1.54;100.00;99860.84;5108756;28;20123;-71
2023/04/21 05:18:31;;;;;;;9.77;5.47;;;;;;;1.64;100.00;99867.03;5108716;28;20058;-71
2023/04/21 05:20:56;;;;;;;8.93;5.38;;;;;;;1.68;100.00;99873.66;5108547;28;20096;-71
2023/04/21 05:23:22;;;;;;;8.75;5.78;;;;;;;1.71;100.00;99870.81;5108709;28;20508;-70
2023/04/21 05:25:48;;;;;;;12.43;5.78;;;;;;;1.74;100.00;99873.16;5108508;28;20498;-69
2023/04/21 05:28:14;;;;;;;7.32;4.82;;;;;;;1.78;100.00;99869.34;5108279;28;20052;-70
2023/04/21 05:30:40;;;;;;;9.68;5.05;;;;;;;1.85;100.00;99870.50;5108512;28;20067;-70
2023/04/21 05:33:05;;;;;;;8.00;4.97;;;;;;;1.83;100.00;99872.44;5099494;28;20094;-70
2023/04/21 05:35:32;;;;;;;11.35;5.60;;;;;;;1.92;100.00;99877.88;5094873;28;20070;-70
2023/04/21 05:37:57;;;;;;;10.18;5.72;;;;;;;1.95;100.00;99882.88;5094520;28;20472;-71
2023/04/21 05:40:23;;;;;;;10.57;6.13;;;;;;;1.97;100.00;99878.34;5094758;28;20039;-70
2023/04/21 05:42:48;;;;;;;8.75;4.90;;;;;;;2.07;100.00;99881.84;5094658;28;20114;-70
2023/04/21 05:45:14;;;;;;;9.02;4.93;;;;;;;2.13;100.00;99866.41;5094606;28;20043;-70
2023/04/21 05:47:39;;;;;;;11.18;6.32;;;;;;;2.28;100.00;99872.19;5094396;28;20185;-70
2023/04/21 05:50:06;;;;;;;9.73;4.93;;;;;;;2.34;100.00;99883.97;5094594;28;20076;-69
2023/04/21 05:52:31;;;;;;;9.40;5.20;;;;;;;2.49;100.00;99901.09;5094460;28;20036;-70
2023/04/21 05:54:58;;;;;;;9.88;5.70;;;;;;;2.53;100.00;99896.38;5094552;28;20032;-70
2023/04/21 05:57:24;;;;;;;10.60;5.33;;;;;;;2.63;100.00;99897.28;5094051;28;20044;-60
2023/04/21 05:59:49;;;;;;;7.03;4.70;;;;;;;2.66;100.00;99892.56;5093429;28;20055;-63
2023/04/21 06:02:15;;;;;;;9.10;5.18;;;;;;;2.77;100.00;99898.72;5092495;28;20036;-63
2023/04/21 06:04:40;;;;;;;12.18;4.95;;;;;;;2.85;100.00;99894.47;5094390;28;20043;-61
2023/04/21 06:07:07;;;;;;;8.75;4.82;;;;;;;2.92;100.00;99903.47;5093994;28;20396;-61
2023/04/21 06:09:33;;;;;;;11.55;4.97;;;;;;;2.98;100.00;99899.50;5094407;28;20097;-63
2023/04/21 06:11:58;;;;;;;9.02;5.07;;;;;;;3.05;100.00;99897.16;5094087;28;20028;-63
2023/04/21 06:14:24;;;;;;;9.88;4.80;;;;;;;3.16;100.00;99894.44;5094212;28;20090;-63
2023/04/21 06:16:49;;;;;;;8.38;5.20;;;;;;;3.21;100.00;99890.44;5092688;28;20040;-61
2023/04/21 06:19:15;;;;;;;8.40;4.75;;;;;;;3.23;100.00;99890.28;5092675;28;20044;-62
2023/04/21 06:21:40;;;;;;;10.55;5.70;;;;;;;3.30;100.00;99894.06;5093894;28;20036;-59
2023/04/21 06:24:06;;;;;;;11.38;5.15;;;;;;;3.37;100.00;99889.91;5093962;28;20036;-60
2023/04/21 06:26:31;;;;;;;11.90;6.13;;;;;;;3.47;100.00;99896.03;5093880;28;20083;-61
2023/04/21 06:28:56;;;;;;;8.55;4.63;;;;;;;3.60;100.00;99898.41;5093519;28;20040;-60
2023/04/21 06:31:22;;;;;;;10.13;5.57;;;;;;;3.74;100.00;99894.53;5093759;28;20085;-60
2023/04/21 06:33:47;;;;;;;9.05;4.65;;;;;;;3.90;100.00;99888.69;5093767;28;20032;-62
2023/04/21 06:36:12;;;;;;;8.38;5.18;;;;;;;4.10;100.00;99885.06;5093525;28;20036;-59
2023/04/21 06:38:40;;;;;;;10.48;5.72;;;;;;;4.29;100.00;99884.22;5093282;28;20058;-59
2023/04/21 06:41:06;;;;;;;11.85;5.85;;;;;;;4.54;100.00;99883.63;5093533;28;20093;-62
2023/04/21 06:43:31;;;;;;;9.48;4.82;;;;;;;4.75;100.00;99890.50;5093327;28;20035;-60
2023/04/21 06:45:57;;;;;;;12.60;5.47;;;;;;;4.87;100.00;99892.81;5091694;28;20668;-60
2023/04/21 06:48:23;;;;;;;8.55;4.93;;;;;;;5.06;100.00;99889.25;5093341;28;20119;-62
2023/04/21 06:50:48;;;;;;;9.32;5.65;;;;;;;5.29;100.00;99873.03;5093393;28;20174;-62
2023/04/21 06:53:16;;;;;;;14.63;6.15;;;;;;;5.39;100.00;99874.59;5093381;28;20506;-63
2023/04/21 06:55:45;;;;;;;;;;;;;;;5.51;100.00;99877.88;5094072;28;20150;-62
2023/04/21 06:58:10;;;;;;;7.47;4.53;;;;;;;5.60;100.00;99871.69;5093082;28;19916;-63
2023/04/21 07:00:35;;;;;;;10.70;5.40;;;;;;;5.69;100.00;99870.78;5093338;28;20145;-61
2023/04/21 07:03:01;;;;;;;11.68;5.60;;;;;;;5.83;100.00;99865.94;5093327;28;20047;-61
2023/04/21 07:05:26;;;;;;;9.40;5.32;;;;;;;5.93;100.00;99875.50;5093179;28;20044;-60
2023/04/21 07:07:54;;;;;;;13.00;6.05;;;;;;;6.06;100.00;99871.63;5093003;28;20040;-60
2023/04/21 07:10:20;;;;;;;10.45;6.47;;;;;;;6.21;100.00;99870.94;5093161;28;20032;-59
2023/04/21 07:12:45;;;;;;;10.43;5.25;;;;;;;6.34;100.00;99867.03;5093154;28;20435;-61
2023/04/21 07:15:11;;;;;;;10.38;6.35;;;;;;;6.49;100.00;99863.66;5093326;28;20039;-61
2023/04/21 07:17:36;;;;;;;10.23;6.32;;;;;;;6.60;100.00;99869.69;5092832;28;20485;-60
2023/04/21 07:20:02;;;;;;;10.68;5.70;;;;;;;6.74;100.00;99863.81;5091755;28;20047;-60
2023/04/21 07:22:28;;;;;;;11.23;6.03;;;;;;;6.97;100.00;99849.00;5091753;28;20042;-62
2023/04/21 07:24:53;;;;;;;10.07;5.15;;;;;;;7.23;100.00;99854.22;5091584;28;20062;-59
2023/04/21 07:27:18;;;;;;;8.40;4.70;;;;;;;7.60;100.00;99847.69;5092435;28;20044;-62
2023/04/21 07:29:44;;;;;;;7.93;4.45;;;;;;;7.97;99.22;99851.72;5092942;28;20046;-59
2023/04/21 07:32:09;;;;;;;11.43;5.47;;;;;;;8.25;96.46;99842.38;5092738;28;20046;-60
2023/04/21 07:34:35;;;;;;;7.68;4.15;;;;;;;8.48;96.46;99844.41;5092646;28;20063;-62
2023/04/21 07:37:00;;;;;;;8.65;4.10;;;;;;;8.70;94.04;99846.31;5092317;28;20036;-61
2023/04/21 07:39:25;;;;;;;7.50;4.05;;;;;;;8.83;91.61;99843.94;5092622;28;20039;-62
2023/04/21 07:41:51;;;;;;;6.78;3.25;;;;;;;9.03;90.30;99839.03;5092617;28;20491;-62
2023/04/21 07:44:16;;;;;;;7.82;4.30;;;;;;;9.19;90.50;99840.78;5092421;28;20485;-62
2023/04/21 07:46:42;;;;;;;6.57;3.70;;;;;;;9.42;90.54;99843.50;5092353;28;20032;-58
2023/04/21 07:49:07;;;;;;;8.45;4.18;;;;;;;9.50;87.47;99849.56;5092253;28;20067;-60
2023/04/21 07:51:33;;;;;;;6.40;4.13;;;;;;;9.60;86.28;99833.41;5092440;28;20085;-60
2023/04/21 07:53:58;;;;;;;7.00;3.90;;;;;;;9.78;85.85;99838.44;5092393;28;20512;-60
2023/04/21 07:56:24;;;;;;;6.28;3.60;;;;;;;9.96;82.90;99848.75;5090920;28;20389;-60
2023/04/21 07:58:50;;;;;;;6.20;3.40;;;;;;;10.05;82.44;99842.38;5092153;28;20044;-60
2023/04/21 08:01:15;;;;;;;5.38;3.25;;;;;;;10.22;81.88;99843.88;5091237;28;20106;-61
2023/04/21 08:03:40;;;;;;;6.25;3.53;;;;;;;10.40;79.61;99846.22;5092323;28;20032;-61
2023/04/21 08:06:06;;;;;;;5.20;3.05;;;;;;;10.50;80.05;99849.47;5092207;28;20507;-58
2023/04/21 08:08:31;;;;;;;3.65;2.47;;;;;;;10.62;78.47;99839.16;5091891;28;20047;-62
2023/04/21 08:10:57;;;;;;;3.65;2.40;;;;;;;10.73;77.00;99840.56;5092152;28;20036;-61
2023/04/21 08:13:24;;;;;;;5.63;2.67;;;;;;;10.83;77.12;99839.28;5092183;28;20831;-63
2023/04/21 08:15:53;;;;;;;4.50;2.80;;;;;;;10.92;76.08;99834.66;5092069;28;20130;-58
2023/04/21 08:18:19;;;;;;;6.47;2.78;;;;;;;11.07;76.86;99832.81;5091892;28;20067;-61
2023/04/21 08:20:46;;;;;;;4.53;2.85;;;;;;;11.32;74.57;99835.97;5092009;28;20067;-64
2023/04/21 08:23:13;;;;;;;5.53;3.30;;;;;;;11.31;75.10;99830.84;5092109;28;20036;-63
2023/04/21 08:25:38;;;;;;;4.85;2.92;;;;;;;11.35;74.95;99824.13;5091998;28;20039;-61
2023/04/21 08:28:04;;;;;;;5.85;2.85;;;;;;;11.50;75.13;99824.91;5091901;28;20109;-63
2023/04/21 08:30:29;;;;;;;5.22;3.63;;;;;;;11.57;76.98;99825.78;5091837;28;20090;-61
2023/04/21 08:32:55;;;;;;;7.13;3.67;;;;;;;11.64;73.76;99810.66;5091953;28;20536;-62
2023/04/21 08:35:20;;;;;;;8.48;3.33;;;;;;;11.62;74.71;99817.22;5091746;28;20044;-64
2023/04/21 08:37:45;;;;;;;5.90;3.78;;;;;;;11.68;73.07;99811.94;5091627;28;20051;-60
2023/04/21 08:40:11;;;;;;;5.53;3.50;;;;;;;11.79;72.04;99815.94;5091890;28;20040;-61
2023/04/21 08:42:38;;;;;;;4.95;3.03;;;;;;;11.89;72.99;99810.31;5090665;28;20130;-62
2023/04/21 08:45:05;;;;;;;6.60;3.40;;;;;;;11.88;73.06;99811.34;5091951;28;20032;-61
2023/04/21 08:47:31;;;;;;;6.20;2.88;;;;;;;12.06;73.41;99806.38;5091395;28;20064;-61
2023/04/21 08:49:57;;;;;;;5.43;3.28;;;;;;;12.28;72.25;99808.97;5091770;28;20051;-63
2023/04/21 08:52:23;;;;;;;5.65;2.75;;;;;;;12.40;69.96;99810.09;5090323;28;20098;-63
2023/04/21 08:54:51;;;;;;;4.15;3.22;;;;;;;12.56;69.60;99807.09;5091731;28;20043;-61
2023/04/21 08:57:17;;;;;;;4.13;2.78;;;;;;;12.79;67.00;99809.50;5091257;28;20032;-63
2023/04/21 08:59:43;;;;;;;3.80;2.50;;;;;;;12.83;67.13;99807.25;5091752;28;20130;-63
2023/04/21 09:02:12;;;;;;;2.65;2.13;;;;;;;12.74;66.07;99798.56;5091615;28;20033;-61
2023/04/21 09:04:42;;;;;;;3.58;2.17;;;;;;;12.99;66.82;99791.69;5091722;28;20036;-52
2023/04/21 09:07:08;;;;;;;4.68;2.60;;;;;;;13.11;65.83;99783.94;5091411;28;20040;-61
2023/04/21 09:09:51;;;;;;;2.95;2.38;;;;;;;13.29;65.30;99792.22;5095533;28;20023;-61
2023/04/21 09:12:17;;;;;;;5.05;2.88;;;;;;;13.48;63.18;99784.44;5095324;28;20044;-61
2023/04/21 09:14:42;;;;;;;4.43;2.50;;;;;;;13.58;64.43;99772.34;5094230;28;20059;-61
2023/04/21 09:17:08;;;;;;;3.70;2.55;;;;;;;13.74;64.09;99773.78;5094800;28;20542;-62
2023/04/21 09:19:33;;;;;;;3.30;2.45;;;;;;;13.79;63.12;99765.13;5095239;28;20044;-63
2023/04/21 09:22:00;;;;;;;3.72;2.50;;;;;;;13.80;64.30;99766.78;5095410;28;20043;-61
2023/04/21 09:24:26;;;;;;;4.05;2.30;;;;;;;14.16;63.20;99769.03;5093921;28;20027;-64
2023/04/21 09:26:52;;;;;;;4.03;2.50;;;;;;;14.47;62.15;99771.06;5095041;28;20036;-64
2023/04/21 09:29:24;;;;;;;2.70;2.05;;;;;;;14.61;60.62;99761.97;5094940;28;20072;-64
2023/04/21 09:31:51;;;;;;;5.25;2.40;;;;;;;14.53;60.22;99758.69;5095004;28;20130;-60
2023/04/21 09:34:19;;;;;;;2.60;1.83;;;;;;;14.92;62.32;99752.34;5095094;28;20039;-60
2023/04/21 09:36:46;;;;;;;2.85;2.20;;;;;;;15.16;60.01;99748.94;5094929;28;20044;-62
2023/04/21 09:39:11;;;;;;;3.88;2.50;;;;;;;15.45;57.90;99744.84;5094791;28;20036;-62
2023/04/21 09:41:37;;;;;;;3.92;2.40;;;;;;;15.67;56.94;99755.25;5095086;28;20032;-62
2023/04/21 09:44:05;;;;;;;2.92;1.85;;;;;;;15.68;57.90;99754.19;5094874;28;20032;-63
2023/04/21 09:46:33;;;;;;;3.58;1.95;;;;;;;15.91;56.85;99743.69;5094715;28;20131;-62
2023/04/21 09:49:00;;;;;;;2.47;1.75;;;;;;;16.17;55.83;99742.63;5094493;28;20488;-61
2023/04/21 09:51:27;;;;;;;3.22;2.15;;;;;;;16.34;54.12;99742.84;5094634;28;20048;-62
2023/04/21 09:53:58;;;;;;;2.55;1.80;;;;;;;16.69;52.83;99753.00;5094671;28;20035;-65
2023/04/21 09:56:25;;;;;;;3.13;1.80;;;;;;;17.05;51.44;99723.41;5094664;28;20126;-63
2023/04/21 09:58:56;;;;;;;3.10;2.07;;;;;;;17.50;50.25;99730.22;5094272;28;20064;-64
2023/04/21 10:01:25;;;;;;;3.42;1.85;;;;;;;17.87;50.02;99726.34;5094548;28;20165;-62
2023/04/21 10:03:52;;;;;;;1.33;1.20;;;;;;;18.07;48.79;99742.16;5094591;28;20047;-63
2023/04/21 10:06:18;;;;;;;2.42;1.63;;;;;;;18.17;47.57;99731.59;5093296;28;20073;-60
2023/04/21 10:08:44;;;;;;;2.00;1.48;;;;;;;18.65;46.25;99730.47;5094115;28;20051;-62
2023/04/21 10:11:11;;;;;;;1.20;1.02;;;;;;;18.95;45.74;99722.19;5094275;28;20377;-60
2023/04/21 10:13:37;;;;;;;2.03;1.25;;;;;;;19.22;45.44;99727.81;5094292;28;20048;-64
2023/04/21 10:16:07;;;;;;;1.42;1.13;;;;;;;19.38;44.74;99718.13;5094234;28;20043;-61
2023/04/21 10:18:40;;;;;;;2.22;1.25;;;;;;;19.70;43.99;99709.50;5094027;28;20047;-63
2023/04/21 10:21:08;;;;;;;1.55;1.00;;;;;;;19.92;44.13;99704.97;5094128;28;20043;-63
2023/04/21 10:23:37;;;;;;;1.20;1.10;;;;;;;20.19;43.38;99704.28;5093963;28;20465;-63
2023/04/21 10:26:08;;;;;;;1.90;1.33;;;;;;;20.41;43.00;99702.44;5094001;28;20472;-63
2023/04/21 10:29:05;;;;;;;1.63;1.15;;;;;;;20.70;42.62;99705.78;5093673;28;20036;-62
2023/04/21 10:31:34;;;;;;;0.70;0.70;;;;;;;20.81;42.13;99707.56;5093871;28;20036;-63
2023/04/21 10:34:11;;;;;;;1.13;0.80;;;;;;;21.11;41.09;99692.69;5092672;28;20054;-65
2023/04/21 10:37:06;;;;;;;;;;;;;;;21.42;40.73;99695.72;5094118;28;20093;-62
2023/04/21 10:39:37;;;;;;;1.00;0.90;;;;;;;21.51;40.80;99699.59;5093902;28;19935;-68
2023/04/21 10:42:11;;;;;;;0.77;0.73;;;;;;;21.61;39.54;99683.44;5076336;28;20477;-60
2023/04/21 10:44:44;;;;;;;1.00;0.80;;;;;;;21.95;38.79;99695.59;5093563;28;20029;-63
2023/04/21 10:47:10;;;;;;;1.10;0.82;;;;;;;21.59;39.64;99691.00;5093200;28;20043;-63
2023/04/21 10:49:39;;;;;;;1.02;0.80;;;;;;;21.61;39.41;99688.84;5093481;28;20074;-63
2023/04/21 10:52:07;;;;;;;1.05;0.80;;;;;;;21.55;39.37;99685.28;5092097;28;20052;-63
2023/04/21 10:54:41;;;;;;;1.52;0.90;;;;;;;22.28;39.32;99687.41;5093499;28;20058;-64
2023/04/21 10:57:08;;;;;;;2.65;0.95;;;;;;;22.26;38.72;99681.44;5092988;28;20036;-63
2023/04/21 10:59:35;;;;;;;1.30;0.90;;;;;;;22.47;38.02;99680.44;5093211;28;20047;-64
2023/04/21 11:02:11;;;;;;;1.08;0.90;;;;;;;23.06;37.11;99671.16;5093481;28;20354;-63
2023/04/21 11:04:39;;;;;;;1.13;1.00;;;;;;;23.27;36.77;99670.91;5093055;28;20036;-63
2023/04/21 11:07:08;;;;;;;1.30;0.90;;;;;;;22.93;36.87;99662.44;5092653;28;20044;-68
2023/04/21 11:09:34;;;;;;;1.58;0.95;;;;;;;23.46;35.89;99649.44;5093180;28;20040;-62
2023/04/21 11:12:03;;;;;;;1.10;1.00;;;;;;;23.12;37.23;99649.16;5092943;28;20028;-63
2023/04/21 11:14:28;;;;;;;1.23;0.95;;;;;;;22.64;37.24;99653.13;5093084;28;20032;-63
2023/04/21 11:16:54;;;;;;;2.28;0.73;;;;;;;23.36;36.86;99660.31;5092656;28;20080;-60
2023/04/21 11:19:23;;;;;;;1.33;1.00;;;;;;;23.81;34.73;99655.97;5092641;28;20157;-63
2023/04/21 11:21:49;;;;;;;1.02;0.93;;;;;;;23.19;36.86;99657.03;5092580;28;20055;-60
2023/04/21 11:24:14;;;;;;;2.03;1.10;;;;;;;23.21;36.67;99649.44;5092634;28;20047;-62
2023/04/21 11:26:43;;;;;;;1.08;0.90;;;;;;;23.64;37.87;99639.13;5092432;28;20119;-60
2023/04/21 11:29:10;;;;;;;2.55;1.42;;;;;;;24.28;35.56;99650.13;5091251;28;20039;-63
2023/04/21 11:31:38;;;;;;;1.63;1.10;;;;;;;24.22;35.62;99645.00;5091824;28;20047;-63
2023/04/21 11:34:05;;;;;;;1.45;1.10;;;;;;;24.36;34.80;99644.13;5092490;28;20032;-64
2023/04/21 11:36:31;;;;;;;;;;;;;;;24.59;34.63;99639.97;5092751;28;20051;-62
2023/04/21 11:38:57;;;;;;;1.45;1.10;;;;;;;24.23;35.89;99636.53;5092067;28;19912;-61
2023/04/21 11:41:23;;;;;;;1.67;1.10;;;;;;;24.74;33.97;99639.06;5092320;28;20032;-60
2023/04/21 11:43:50;;;;;;;1.75;1.30;;;;;;;24.48;35.32;99630.22;5091001;28;20103;-62
2023/04/21 11:46:17;;;;;;;1.10;1.00;;;;;;;24.79;35.18;99633.59;5092216;28;20124;-64
2023/04/21 11:48:43;;;;;;;2.13;1.40;;;;;;;25.35;33.46;99633.19;5089210;28;20031;-61
2023/04/21 11:51:17;;;;;;;1.30;1.20;;;;;;;25.00;33.84;99628.00;5082576;28;20039;-62
2023/04/21 11:53:45;;;;;;;1.65;1.20;;;;;;;25.08;33.75;99635.59;5080462;28;20033;-63
2023/04/21 11:56:11;;;;;;;1.77;1.30;;;;;;;25.26;32.83;99625.94;5080698;28;20032;-62
2023/04/21 11:58:38;;;;;;;1.40;1.10;;;;;;;25.07;33.04;99623.06;5080920;28;20037;-63
2023/04/21 12:01:09;;;;;;;2.17;1.52;;;;;;;25.06;34.11;99611.38;5080361;28;20040;-64
2023/04/21 12:03:35;;;;;;;1.35;1.10;;;;;;;25.24;33.67;99614.50;5081142;28;20048;-64
2023/04/21 12:06:00;;;;;;;1.85;1.52;;;;;;;25.39;33.24;99608.91;5082387;28;20024;-63
2023/04/21 12:08:30;;;;;;;1.90;1.20;;;;;;;25.34;32.95;99595.34;5078610;28;20044;-63
2023/04/21 12:10:58;;;;;;;2.17;1.10;;;;;;;25.68;32.72;99611.63;5080894;28;20023;-64
2023/04/21 12:13:23;;;;;;;;;;;;;;;25.35;32.54;99610.59;5082660;28;20020;-64
2023/04/21 12:15:49;;;;;;;2.40;1.53;;;;;;;25.26;33.14;99607.66;5080809;28;19916;-65
2023/04/21 12:18:14;;;;;;;1.30;1.20;;;;;;;25.44;32.74;99612.41;5080613;28;20039;-65
2023/04/21 12:20:49;;;;;;;1.27;1.10;;;;;;;25.09;32.42;99610.78;5082097;28;20028;-64
2023/04/21 12:23:15;;;;;;;1.40;1.10;;;;;;;25.17;32.32;99596.56;5078324;28;20105;-64
2023/04/21 12:25:41;;;;;;;1.00;0.90;;;;;;;24.70;32.70;99599.84;5082096;28;20055;-65
2023/04/21 12:28:07;;;;;;;1.30;0.90;;;;;;;25.20;31.75;99605.28;5079542;28;20467;-65
2023/04/21 12:30:33;;;;;;;1.55;1.10;;;;;;;23.73;34.29;99600.22;5081303;28;20036;-65
2023/04/21 12:32:59;;;;;;;1.20;1.10;;;;;;;24.56;33.19;99604.31;5066146;28;20028;-65
2023/04/21 12:35:25;;;;;;;1.48;1.27;;;;;;;25.10;32.74;99604.25;5079939;28;20047;-65
2023/04/21 12:37:50;;;;;;;1.33;1.15;;;;;;;24.98;33.14;99603.78;5080788;28;20036;-64
2023/04/21 12:40:16;;;;;;;1.48;1.38;;;;;;;24.87;33.24;99610.38;5081711;28;20110;-64
2023/04/21 12:42:41;;;;;;;2.10;1.65;;;;;;;25.42;33.10;99602.88;5079693;28;20091;-64
2023/04/21 12:45:07;;;;;;;1.20;1.10;;;;;;;24.62;33.60;99601.28;5085109;28;20035;-64
2023/04/21 12:47:35;;;;;;;1.98;1.40;;;;;;;25.05;33.13;99598.84;5084630;28;20040;-64
2023/04/21 12:50:01;;;;;;;1.50;1.27;;;;;;;25.30;33.45;99595.09;5066310;28;20052;-63
2023/04/21 12:52:26;;;;;;;1.95;1.50;;;;;;;25.88;31.79;99606.00;5076667;28;20539;-62
2023/04/21 12:54:52;;;;;;;2.58;1.40;;;;;;;25.09;32.57;99601.81;5085224;28;20500;-61
2023/04/21 12:57:17;;;;;;;1.98;1.23;;;;;;;25.46;32.57;99592.22;5084276;28;20120;-63
2023/04/21 12:59:43;;;;;;;1.33;1.23;;;;;;;25.60;32.43;99594.00;5086070;28;20122;-63
2023/04/21 13:02:08;;;;;;;1.42;1.30;;;;;;;25.69;32.58;99580.53;5084223;28;20037;-63
2023/04/21 13:04:35;;;;;;;1.73;1.42;;;;;;;25.91;32.06;99577.34;5083713;28;20024;-63
2023/04/21 13:07:00;;;;;;;1.60;1.50;;;;;;;26.36;30.94;99586.06;5085846;28;20032;-64
2023/04/21 13:09:26;;;;;;;1.83;1.50;;;;;;;26.22;31.72;99581.31;5080827;28;20055;-63
2023/04/21 13:11:51;;;;;;;1.88;1.60;;;;;;;26.12;31.98;99586.09;5080687;28;20063;-64
2023/04/21 13:14:17;;;;;;;1.60;1.50;;;;;;;24.95;32.70;99571.63;5084141;28;20418;-63
2023/04/21 13:16:43;;;;;;;2.50;1.80;;;;;;;25.33;33.36;99571.91;5084902;28;20024;-65
2023/04/21 13:19:08;;;;;;;2.20;1.70;;;;;;;25.95;32.61;99584.66;5084389;28;20032;-63
2023/04/21 13:21:34;;;;;;;2.25;1.75;;;;;;;25.88;33.56;99577.91;5083915;28;20045;-63
2023/04/21 13:24:01;;;;;;;3.85;1.50;;;;;;;26.00;33.99;99567.41;5085497;28;20048;-63
2023/04/21 13:26:26;;;;;;;1.92;1.73;;;;;;;26.12;33.83;99561.53;5085110;28;20044;-63
2023/04/21 13:28:51;;;;;;;2.30;1.83;;;;;;;26.58;32.07;99563.66;5083419;28;20039;-63
2023/04/21 13:31:17;;;;;;;2.13;1.80;;;;;;;26.20;33.25;99558.13;5095149;28;20675;-61
2023/04/21 13:33:43;;;;;;;2.35;1.95;;;;;;;26.17;32.77;99554.09;5095124;28;20043;-63
2023/04/21 13:36:09;;;;;;;2.28;1.80;;;;;;;25.93;33.02;99551.38;5095105;28;20428;-63
2023/04/21 13:38:35;;;;;;;2.20;1.80;;;;;;;25.83;33.36;99558.88;5094661;28;20500;-64
2023/04/21 13:41:01;;;;;;;2.45;1.88;;;;;;;25.62;34.14;99548.16;5094922;28;20050;-63
2023/04/21 13:43:26;;;;;;;3.40;1.98;;;;;;;25.24;34.88;99536.28;5094974;28;20492;-63
2023/04/21 13:45:52;;;;;;;3.00;1.77;;;;;;;24.36;36.31;99540.72;5094846;28;20040;-64
2023/04/21 13:48:22;;;;;;;2.20;2.00;;;;;;;23.55;37.68;99532.84;5094651;28;20480;-62
2023/04/21 13:50:48;;;;;;;2.47;2.00;;;;;;;22.95;38.99;99519.09;5094992;28;20405;-62
2023/04/21 13:53:15;;;;;;;1.90;1.50;;;;;;;22.54;40.11;99517.38;5094325;28;20206;-63
2023/04/21 13:55:42;;;;;;;2.85;1.83;;;;;;;22.17;40.60;99511.06;5094688;28;20043;-64
2023/04/21 13:58:08;;;;;;;1.98;1.63;;;;;;;21.90;41.85;99511.19;5094512;28;20028;-63
2023/04/21 14:00:33;;;;;;;2.08;1.60;;;;;;;21.57;42.43;99508.88;5094438;28;20165;-64
2023/04/21 14:02:58;;;;;;;1.98;1.73;;;;;;;21.59;42.94;99504.03;5094471;28;20131;-64
2023/04/21 14:05:24;;;;;;;2.63;2.08;;;;;;;21.34;42.49;99505.53;5094438;28;20039;-64
2023/04/21 14:07:49;;;;;;;2.25;1.83;;;;;;;21.46;42.54;99507.22;5094171;28;20393;-62
2023/04/21 14:10:15;;;;;;;2.10;1.58;;;;;;;21.22;43.33;99507.56;5094346;28;20508;-64
2023/04/21 14:12:40;;;;;;;1.85;1.52;;;;;;;20.70;44.79;99499.31;5093170;28;20052;-62
2023/04/21 14:15:06;;;;;;;2.25;1.63;;;;;;;21.07;43.53;99494.75;5094427;28;20090;-63
2023/04/21 14:17:32;;;;;;;2.42;1.98;;;;;;;20.82;44.30;99492.66;5093808;28;20047;-63
2023/04/21 14:19:58;;;;;;;2.05;1.58;;;;;;;20.85;44.46;99481.31;5094217;28;20028;-63
2023/04/21 14:22:23;;;;;;;2.08;1.50;;;;;;;20.95;44.38;99488.72;5093940;28;20481;-62
2023/04/21 14:24:49;;;;;;;2.10;1.70;;;;;;;20.86;44.56;99474.84;5094128;28;20044;-63
2023/04/21 14:27:14;;;;;;;2.10;1.50;;;;;;;20.82;44.55;99467.50;5093798;28;20036;-63
2023/04/21 14:29:40;;;;;;;1.90;1.45;;;;;;;20.37;45.69;99471.41;5094065;28;20463;-62
2023/04/21 14:32:05;;;;;;;3.17;2.63;;;;;;;20.55;46.29;99462.13;5093947;28;20116;-59
2023/04/21 14:34:31;;;;;;;2.35;1.92;;;;;;;20.27;46.33;99453.19;5094032;28;20036;-64
2023/04/21 14:36:56;;;;;;;2.42;2.05;;;;;;;19.96;48.82;99448.56;5093554;28;20036;-64
2023/04/21 14:39:22;;;;;;;2.15;1.77;;;;;;;20.07;48.32;99447.56;5093741;28;20043;-64
2023/04/21 14:41:48;;;;;;;2.47;1.90;;;;;;;19.92;48.18;99466.34;5093721;28;20666;-63
2023/04/21 14:44:13;;;;;;;3.72;2.20;;;;;;;19.88;48.24;99455.19;5093798;28;20040;-64
2023/04/21 14:46:38;;;;;;;4.30;2.25;;;;;;;19.35;49.61;99466.66;5093574;28;20039;-59
2023/04/21 14:49:04;;;;;;;5.10;3.03;;;;;;;19.45;50.84;99464.94;5093456;28;20047;-62
2023/04/21 14:51:30;;;;;;;4.72;3.10;;;;;;;19.44;50.76;99478.69;5093609;28;20040;-60
2023/04/21 14:53:56;;;;;;;4.47;2.47;;;;;;;19.33;50.26;99479.59;5093524;28;20039;-63
2023/04/21 14:56:21;;;;;;;2.92;1.90;;;;;;;19.29;50.84;99489.25;5093465;28;20237;-56
2023/04/21 14:58:47;;;;;;;2.90;2.03;;;;;;;19.27;50.92;99483.28;5093114;28;20032;-58
2023/04/21 15:01:12;;;;;;;4.28;2.30;;;;;;;19.22;50.56;99484.84;5093274;28;20028;-55
2023/04/21 15:03:38;;;;;;;3.30;2.10;;;;;;;19.13;51.66;99469.34;5093424;28;20050;-58
2023/04/21 15:06:03;;;;;;;1.83;1.63;;;;;;;18.90;52.05;99473.84;5092526;28;20710;-55
2023/04/21 15:08:29;;;;;;;3.35;1.85;;;;;;;18.92;51.66;99479.81;5092987;28;20036;-60
2023/04/21 15:10:55;;;;;;;4.47;2.13;;;;;;;18.92;52.48;99479.81;5093164;28;20036;-56
2023/04/21 15:13:21;;;;;;;2.78;2.00;;;;;;;18.88;52.69;99478.69;5093131;28;20036;-59
2023/04/21 15:15:47;;;;;;;3.20;2.28;;;;;;;18.86;52.00;99486.22;5092999;28;20050;-58
2023/04/21 15:18:12;;;;;;;2.30;1.77;;;;;;;18.44;52.90;99553.94;5092800;28;20036;-56
2023/04/21 15:20:38;;;;;;;1.67;1.20;;;;;;;17.97;48.85;99564.06;5092913;28;20042;-56
2023/04/21 15:23:03;;;;;;;0.77;0.60;;;;;;;17.69;49.50;99580.97;5093014;28;20055;-57
2023/04/21 15:25:29;;;;;;;0.68;0.65;;;;;;;17.26;51.22;99567.84;5092984;28;20036;-60
2023/04/21 15:27:54;;;;;;;1.08;0.70;;;;;;;17.09;51.66;99555.09;5092543;28;20127;-59
2023/04/21 15:30:20;;;;;;;1.00;0.80;;;;;;;16.93;52.13;99526.16;5092910;28;20509;-64
2023/04/21 15:32:45;;;;;;;0.52;0.50;;;;;;;16.42;54.90;99546.34;5092883;28;20028;-56
2023/04/21 15:35:10;;;;;;;2.47;0.68;;;;;;;15.69;71.52;99586.69;5092730;28;20161;-49
2023/04/21 15:37:36;;;;;;;1.08;0.70;;;;;;;14.93;76.51;99582.38;5092446;28;20036;-57
2023/04/21 15:40:03;;;;;;;2.00;0.68;;;;;;;14.57;84.74;99558.91;5092700;28;20042;-65
2023/04/21 15:42:28;;;;;;;2.65;0.65;;;;;;;14.24;86.72;99583.16;5092680;28;20107;-56
2023/04/21 15:44:56;;;;;;;0.60;0.50;;;;;;;14.28;79.51;99554.91;5092478;28;20550;-61
2023/04/21 15:47:21;;;;;;;0.60;0.60;;;;;;;14.07;81.19;99521.22;5091122;28;20040;-63
2023/04/21 15:49:47;;;;;;;0.70;0.70;;;;;;;14.18;70.81;99477.72;5092613;28;20043;-60
2023/04/21 15:52:12;;;;;;;0.45;0.45;;;;;;;14.52;57.75;99470.28;5092442;28;20027;-62